X  Κλείσε Στοιχεία αεροπορικών μετεωρολογικών δεδομένων METAR     LHBP Budapest Liszt Ferenc International Airport
θερμοκρασία
21°C θερμοκρασία
18°C Σημείο δρόσου
83% Υγρασία



Ανεμος
3 KM/H
2 MPH
1 M/S
2 KTS



Ηρεμία
V
Τρέχουσες συνθήκες

Σαφή Σαφή
πίεση 1013.88 (hPa) - 29.94 (inHg)
Ορατότητα 6 (μίλι) - 9.7 (km)
Aεροδρόμιο
Κωδικός αεροδρομίου LHBP

Τοποθεσία: Budapest Liszt Ferenc International Airport
Απόσταση: 14 (km)

Metar:
LHBP 232130Z VRB02KT CAVOK 21/18 Q1014 NOSIG

ώρα: 2024-07-23 23:30 CEST